createdAt,value
2023-05-16T00:02:14.349Z,64.03
2023-05-16T00:04:42.757Z,69.81
2023-05-16T00:07:10.958Z,65.47
2023-05-16T00:09:38.917Z,71.62
2023-05-16T00:12:08.009Z,67.78
2023-05-16T00:14:36.790Z,68.28
2023-05-16T00:17:12.436Z,69.74
2023-05-16T00:19:42.511Z,63.06
2023-05-16T00:22:11.778Z,66.70
2023-05-16T00:24:40.153Z,70.15
2023-05-16T00:27:08.562Z,69.64
2023-05-16T00:29:36.563Z,63.78
2023-05-16T00:32:05.021Z,68.75
2023-05-16T00:34:33.076Z,59.58
2023-05-16T00:37:01.386Z,68.51
2023-05-16T00:39:29.875Z,63.62
2023-05-16T00:41:58.141Z,62.10
2023-05-16T00:44:26.092Z,61.13
2023-05-16T00:46:55.019Z,70.49
2023-05-16T00:49:23.153Z,66.75
2023-05-16T00:51:52.260Z,67.82
2023-05-16T00:54:27.311Z,63.83
2023-05-16T00:56:59.327Z,71.83
2023-05-16T00:59:28.056Z,72.97
2023-05-16T01:01:56.858Z,72.36
2023-05-16T01:04:25.499Z,72.92
2023-05-16T01:06:57.300Z,70.74
2023-05-16T01:09:25.430Z,79.67
2023-05-16T06:30:45.255Z,31.05
2023-05-16T06:33:14.911Z,31.05
2023-05-16T06:35:43.022Z,30.97
2023-05-16T06:38:11.173Z,30.86
2023-05-16T06:40:39.502Z,30.52
2023-05-16T06:43:07.669Z,30.63
2023-05-16T06:45:35.987Z,31.22
2023-05-16T06:48:05.580Z,30.40
2023-05-16T06:50:33.778Z,30.74
2023-05-16T06:53:02.558Z,30.27
2023-05-16T06:55:31.101Z,29.15
2023-05-16T06:57:59.257Z,29.01
2023-05-16T07:00:27.660Z,29.19
2023-05-16T07:02:56.329Z,28.71
2023-05-16T07:05:24.513Z,28.30
2023-05-16T07:07:52.595Z,29.17
2023-05-16T07:10:21.619Z,28.75
2023-05-16T07:12:49.669Z,29.15
2023-05-16T07:15:17.678Z,28.57
2023-05-16T07:17:46.350Z,28.51
2023-05-16T07:20:15.170Z,28.08
2023-05-16T07:22:43.181Z,27.95
2023-05-16T07:25:13.162Z,28.70
2023-05-16T07:27:42.131Z,27.47
2023-05-16T07:30:11.378Z,27.21
2023-05-16T07:32:40.620Z,27.80
2023-05-16T07:35:09.902Z,27.14
2023-05-16T07:37:38.271Z,27.65
2023-05-16T07:40:07.436Z,27.23
2023-05-16T07:42:35.466Z,28.39
2023-05-16T07:45:03.404Z,27.74
2023-05-16T07:47:34.168Z,28.00
2023-05-16T07:50:02.554Z,26.79
2023-05-16T07:52:33.091Z,24.39
2023-05-16T07:55:01.557Z,26.26
2023-05-16T07:57:31.900Z,26.05
2023-05-16T08:00:00.013Z,21.39
2023-05-16T08:02:31.481Z,26.49
2023-05-16T08:05:00.090Z,26.24
2023-05-16T08:07:28.145Z,25.39
2023-05-16T08:09:56.261Z,25.56
2023-05-16T08:12:24.990Z,27.04
2023-05-16T08:14:52.912Z,31.56
2023-05-16T08:17:20.840Z,26.42
2023-05-16T08:19:49.161Z,27.20
2023-05-16T08:22:17.211Z,28.41
2023-05-16T08:24:45.084Z,26.81
2023-05-16T08:27:13.431Z,27.61
2023-05-16T08:29:42.307Z,27.52
2023-05-16T08:32:11.553Z,24.62
2023-05-16T08:34:39.915Z,24.00
2023-05-16T08:37:07.983Z,23.88
2023-05-16T08:39:36.170Z,24.77
2023-05-16T08:42:05.683Z,24.84
2023-05-16T08:44:35.428Z,26.64
2023-05-16T08:47:13.510Z,25.66
2023-05-16T08:49:42.696Z,25.07
2023-05-16T08:52:11.661Z,24.25
2023-05-16T08:54:41.545Z,23.79
2023-05-16T08:57:10.616Z,26.13
2023-05-16T08:59:38.775Z,24.91
2023-05-16T09:02:07.180Z,20.66
2023-05-16T09:04:37.553Z,24.16
2023-05-16T09:07:06.341Z,25.52
2023-05-16T09:09:34.313Z,25.44
2023-05-16T09:12:02.763Z,23.88
2023-05-16T09:14:31.301Z,22.37
2023-05-16T09:17:12.366Z,22.73
2023-05-16T09:19:42.849Z,20.25
2023-05-16T09:22:14.068Z,28.55
2023-05-16T09:24:43.974Z,26.15
2023-05-16T09:27:13.596Z,23.80
2023-05-16T09:29:43.201Z,18.71
2023-05-16T09:32:25.140Z,25.84
2023-05-16T09:35:05.660Z,25.09
2023-05-16T09:37:34.111Z,24.22
2023-05-16T09:40:02.057Z,22.07
2023-05-16T09:42:32.826Z,23.54
2023-05-16T09:45:04.358Z,24.03
2023-05-16T09:47:33.196Z,22.84
2023-05-16T09:50:01.566Z,18.92
2023-05-16T09:52:31.667Z,19.14
2023-05-16T09:54:59.568Z,25.21
2023-05-16T09:57:31.121Z,24.36
2023-05-16T10:00:02.305Z,20.65
2023-05-16T10:02:33.953Z,23.84
2023-05-16T10:05:05.249Z,21.12
2023-05-16T10:07:35.928Z,23.75
2023-05-16T10:10:09.427Z,22.65
2023-05-16T10:12:38.879Z,18.94
2023-05-16T10:15:20.164Z,24.32
2023-05-16T10:17:55.181Z,23.93
2023-05-16T10:20:24.407Z,23.75
2023-05-16T10:22:55.971Z,22.68
2023-05-16T10:26:01.657Z,20.59
2023-05-16T10:28:30.583Z,20.33
2023-05-16T10:31:01.738Z,21.27
2023-05-16T10:33:56.999Z,24.77
2023-05-16T10:36:25.987Z,27.32
2023-05-16T10:38:54.860Z,22.59
2023-05-16T10:41:35.468Z,25.96
2023-05-16T10:44:05.342Z,22.79
2023-05-16T10:46:33.608Z,20.67
2023-05-16T10:49:20.635Z,20.68
2023-05-16T10:52:11.336Z,23.79
2023-05-16T10:54:44.477Z,24.93
2023-05-16T10:57:18.115Z,25.69
2023-05-16T10:59:47.920Z,22.64
2023-05-16T11:02:35.119Z,29.84
2023-05-16T11:05:03.509Z,22.94
2023-05-16T11:07:37.266Z,25.12
2023-05-16T11:10:16.282Z,33.21
2023-05-16T11:12:51.126Z,31.63
2023-05-16T11:15:28.811Z,28.89
2023-05-16T11:18:09.111Z,26.44
2023-05-16T11:20:39.034Z,31.71
2023-05-16T11:23:22.480Z,28.57
2023-05-16T11:25:56.412Z,30.81
2023-05-16T11:28:27.279Z,24.63
2023-05-16T11:30:58.406Z,24.87
2023-05-16T11:33:28.074Z,24.79
2023-05-16T11:36:15.798Z,24.65
2023-05-16T11:38:44.772Z,25.75
2023-05-16T11:41:13.256Z,26.25
2023-05-16T11:43:42.987Z,25.69
2023-05-16T11:46:16.691Z,26.05
2023-05-16T11:48:46.725Z,24.93
2023-05-16T11:51:19.258Z,27.62
2023-05-16T11:53:50.830Z,26.13
2023-05-16T11:56:21.999Z,30.19
2023-05-16T11:58:51.219Z,26.16
2023-05-16T12:01:19.652Z,29.88
2023-05-16T12:03:57.289Z,28.53
2023-05-16T12:06:26.887Z,29.17
2023-05-16T12:08:55.590Z,28.29
2023-05-16T12:11:26.788Z,27.82
2023-05-16T12:13:55.338Z,27.03
2023-05-16T12:16:24.187Z,28.90
2023-05-16T12:18:52.301Z,25.91
2023-05-16T12:21:20.906Z,24.66
2023-05-16T12:23:48.843Z,24.13
2023-05-16T12:26:26.049Z,23.72
2023-05-16T12:28:57.604Z,23.48
2023-05-16T12:31:31.613Z,21.84
2023-05-16T12:34:00.840Z,23.08
2023-05-16T12:36:33.839Z,22.64
2023-05-16T12:39:08.161Z,22.96
2023-05-16T12:41:42.954Z,22.79
2023-05-16T12:44:18.094Z,21.41
2023-05-16T12:46:49.007Z,20.72
2023-05-16T12:49:21.359Z,21.20
2023-05-16T12:51:54.580Z,20.17
2023-05-16T12:54:23.398Z,20.10
2023-05-16T12:56:51.519Z,19.27
2023-05-16T12:59:20.650Z,18.52
2023-05-16T13:01:49.084Z,19.42
2023-05-16T13:04:20.272Z,18.31
2023-05-16T13:06:59.149Z,18.62
2023-05-16T13:09:32.092Z,18.08
2023-05-16T13:14:46.885Z,17.34
2023-05-16T13:17:15.145Z,17.61
2023-05-16T13:19:43.051Z,17.52
2023-05-16T13:22:11.128Z,17.62
2023-05-16T13:24:39.456Z,17.90
2023-05-16T13:27:07.531Z,17.68
2023-05-16T13:29:35.521Z,18.07
2023-05-16T13:32:04.085Z,17.54
2023-05-16T13:34:32.656Z,17.89
2023-05-16T13:37:01.028Z,19.41
2023-05-16T13:39:29.282Z,22.26
2023-05-16T13:41:57.271Z,23.66
2023-05-16T13:44:25.300Z,25.18
2023-05-16T13:46:58.257Z,28.26
2023-05-16T13:49:26.655Z,30.17
2023-05-16T13:51:55.028Z,28.73
2023-05-16T13:54:23.206Z,28.88
2023-05-16T13:56:51.598Z,28.77
2023-05-16T13:59:28.445Z,29.90
2023-05-16T14:02:06.291Z,26.25
2023-05-16T14:04:34.737Z,24.21
2023-05-16T14:07:02.845Z,21.63
2023-05-16T14:09:31.115Z,20.81
2023-05-16T14:11:59.525Z,18.79
2023-05-16T14:14:27.668Z,19.04
2023-05-16T14:16:55.855Z,19.04
2023-05-16T14:19:24.253Z,18.34
2023-05-16T14:21:52.352Z,17.84
2023-05-16T14:24:20.438Z,17.87
2023-05-16T14:26:48.761Z,18.15
2023-05-16T14:29:16.650Z,18.11
2023-05-16T14:31:44.610Z,18.29
2023-05-16T14:34:13.036Z,18.64
2023-05-16T14:36:41.018Z,18.62
2023-05-16T14:39:09.820Z,18.13
2023-05-16T14:41:38.076Z,18.63
2023-05-16T14:44:06.328Z,18.89
2023-05-16T14:46:34.542Z,18.27
2023-05-16T14:49:03.019Z,18.09
2023-05-16T14:51:32.142Z,17.65
2023-05-16T14:54:00.166Z,18.08
2023-05-16T14:56:28.511Z,18.12
2023-05-16T14:58:56.422Z,17.91
2023-05-16T15:01:24.454Z,18.00
2023-05-16T15:03:55.835Z,18.27
2023-05-16T15:06:25.190Z,18.09
2023-05-16T15:08:54.438Z,18.49
2023-05-16T15:11:22.482Z,17.94
2023-05-16T15:13:50.577Z,18.26
2023-05-16T15:16:19.027Z,18.63
2023-05-16T15:18:48.772Z,18.95
2023-05-16T15:21:16.855Z,19.47
2023-05-16T15:23:45.573Z,18.86
2023-05-16T15:26:13.678Z,18.44
2023-05-16T15:28:41.829Z,18.29
2023-05-16T15:31:10.807Z,18.69
2023-05-16T15:33:38.833Z,18.91
2023-05-16T15:36:07.307Z,18.97
2023-05-16T15:38:36.732Z,19.26
2023-05-16T15:43:42.883Z,19.62
2023-05-16T15:46:11.777Z,19.46
2023-05-16T15:48:45.061Z,19.46
2023-05-16T15:51:14.246Z,20.22
2023-05-16T15:53:42.420Z,20.61
2023-05-16T15:56:10.534Z,20.52
2023-05-16T15:58:39.049Z,20.94
2023-05-16T16:01:06.971Z,20.76
2023-05-16T16:03:35.565Z,21.65
2023-05-16T16:06:03.886Z,22.03
2023-05-16T16:08:31.945Z,22.55
2023-05-16T16:11:00.218Z,22.42
2023-05-16T16:13:28.115Z,22.92
2023-05-16T16:15:56.137Z,22.93
2023-05-16T16:18:24.572Z,23.15
2023-05-16T16:20:54.157Z,23.55
2023-05-16T16:23:22.164Z,23.51
2023-05-16T16:25:50.666Z,24.34
2023-05-16T16:28:19.629Z,24.73
2023-05-16T16:30:50.677Z,25.47
2023-05-16T16:33:19.158Z,25.64
2023-05-16T16:35:47.187Z,26.57
2023-05-16T16:38:15.451Z,28.63
2023-05-16T16:40:44.353Z,31.08
2023-05-16T16:43:12.515Z,32.88
2023-05-16T16:45:40.561Z,33.92
2023-05-16T16:48:12.132Z,34.60
2023-05-16T16:50:40.467Z,35.05
2023-05-16T16:53:08.968Z,35.98
2023-05-16T16:55:40.628Z,36.55
2023-05-16T16:58:09.163Z,36.42
2023-05-16T17:00:37.353Z,36.29
2023-05-16T17:03:05.797Z,35.39
2023-05-16T17:05:34.405Z,34.87
2023-05-16T17:08:02.718Z,36.70
2023-05-16T17:10:31.154Z,37.57
2023-05-16T17:13:06.282Z,37.20
2023-05-16T17:15:34.708Z,37.22
2023-05-16T17:18:03.956Z,37.90
2023-05-16T17:20:32.128Z,37.92
2023-05-16T17:23:00.780Z,38.59
2023-05-16T17:25:41.524Z,38.65
2023-05-16T17:28:21.900Z,40.36
2023-05-16T17:30:50.510Z,40.45
2023-05-16T17:33:19.909Z,41.28
2023-05-16T17:35:48.529Z,41.70
2023-05-16T17:38:17.093Z,40.60
2023-05-16T17:40:45.178Z,40.03
2023-05-16T17:43:13.580Z,40.08
2023-05-16T17:45:41.914Z,39.39
2023-05-16T17:48:10.418Z,41.07
2023-05-16T17:50:38.795Z,43.12
2023-05-16T17:53:09.402Z,45.29
2023-05-16T17:55:38.426Z,47.87
2023-05-16T17:58:07.349Z,44.56
2023-05-16T18:00:36.161Z,43.64
2023-05-16T18:03:05.523Z,43.74
2023-05-16T18:05:33.607Z,43.31
2023-05-16T18:08:01.858Z,42.98
2023-05-16T18:10:43.403Z,41.76
2023-05-16T18:13:19.154Z,40.39
2023-05-16T18:15:47.644Z,40.41
2023-05-16T18:18:15.863Z,39.52
2023-05-16T18:20:44.302Z,40.98
2023-05-16T18:23:12.760Z,41.23
2023-05-16T18:25:40.783Z,40.45
2023-05-16T18:28:08.738Z,41.29
2023-05-16T18:30:38.111Z,42.11
2023-05-16T18:33:06.955Z,43.56
2023-05-16T18:35:35.116Z,45.73
2023-05-16T18:38:04.212Z,43.25
2023-05-16T18:40:48.316Z,42.77
2023-05-16T18:43:19.905Z,42.55
2023-05-16T18:45:48.161Z,41.45
2023-05-16T18:48:16.861Z,41.62
2023-05-16T18:50:44.817Z,40.77
2023-05-16T18:53:12.730Z,40.33
2023-05-16T18:55:41.054Z,41.15
2023-05-16T18:58:09.113Z,42.22
2023-05-16T19:00:49.477Z,46.24
2023-05-16T19:03:18.135Z,54.25
2023-05-16T19:05:46.682Z,61.14
2023-05-16T19:08:15.001Z,50.33
2023-05-16T19:10:43.698Z,46.39
2023-05-16T19:13:11.780Z,44.05
2023-05-16T19:15:40.057Z,42.94
2023-05-16T19:18:20.886Z,42.29
2023-05-16T19:20:49.176Z,41.91
2023-05-16T19:23:17.663Z,42.34
2023-05-16T19:25:49.592Z,42.18
2023-05-16T19:28:30.317Z,42.61
2023-05-16T19:30:58.674Z,42.49
2023-05-16T19:33:27.268Z,44.73
2023-05-16T19:35:58.952Z,45.99
2023-05-16T19:38:27.382Z,48.06
2023-05-16T19:40:55.499Z,56.35
2023-05-16T19:43:24.277Z,52.41
2023-05-16T19:45:53.010Z,47.30
2023-05-16T19:48:33.493Z,45.29
2023-05-16T19:51:02.430Z,43.75
2023-05-16T19:53:43.229Z,43.15
2023-05-16T19:56:11.799Z,43.06
2023-05-16T19:58:39.906Z,42.83
2023-05-16T20:01:23.122Z,42.89
2023-05-16T20:03:51.835Z,43.43
2023-05-16T20:06:33.120Z,44.26
2023-05-16T20:09:01.838Z,43.64
2023-05-16T20:11:29.950Z,44.11
2023-05-16T20:14:00.536Z,44.22
2023-05-16T20:16:29.163Z,44.77
2023-05-16T20:18:57.364Z,43.87
2023-05-16T20:21:25.479Z,43.82
2023-05-16T20:23:54.617Z,44.56
2023-05-16T20:26:23.491Z,45.39
2023-05-16T20:28:51.564Z,46.40
2023-05-16T20:31:20.263Z,46.49
2023-05-16T20:34:00.875Z,45.94
2023-05-16T20:36:29.639Z,46.58
2023-05-16T20:38:57.615Z,46.86
2023-05-16T20:41:37.334Z,50.69
2023-05-16T20:44:17.708Z,53.87
2023-05-16T20:46:46.012Z,62.84
2023-05-16T20:49:14.377Z,58.59
2023-05-16T20:51:42.720Z,55.47
2023-05-16T20:54:11.299Z,52.07
2023-05-16T20:56:39.541Z,50.67
2023-05-16T20:59:07.936Z,49.53
2023-05-16T21:01:36.027Z,49.52
2023-05-16T21:04:04.210Z,49.13
2023-05-16T21:06:32.569Z,50.90
2023-05-16T21:09:00.751Z,52.58
2023-05-16T21:11:28.922Z,50.85
2023-05-16T21:13:57.177Z,51.71
2023-05-16T21:16:25.372Z,54.38
2023-05-16T21:18:53.654Z,51.97
2023-05-16T21:21:22.264Z,53.09
2023-05-16T21:23:50.384Z,51.52
2023-05-16T21:26:18.812Z,51.52
2023-05-16T21:31:19.272Z,54.96
2023-05-16T21:33:47.718Z,55.43
2023-05-16T21:36:15.787Z,56.41
2023-05-16T21:38:43.872Z,58.92
2023-05-16T21:41:12.278Z,59.76
2023-05-16T21:43:40.519Z,59.34
2023-05-16T21:46:08.486Z,61.50
2023-05-16T21:48:37.018Z,62.89
2023-05-16T21:51:07.439Z,65.40
2023-05-16T21:53:35.533Z,67.24
2023-05-16T21:56:04.156Z,67.77
2023-05-16T21:58:32.196Z,70.16
2023-05-16T22:01:00.284Z,70.34
2023-05-16T22:03:28.833Z,72.01
2023-05-16T22:05:58.465Z,67.36
2023-05-16T22:08:26.414Z,63.24
2023-05-16T22:10:54.807Z,62.19
2023-05-16T22:13:22.844Z,61.09
2023-05-16T22:16:03.250Z,62.18
2023-05-16T22:18:34.134Z,61.08
2023-05-16T22:21:04.673Z,60.90
2023-05-16T22:23:32.901Z,61.23
2023-05-16T22:26:00.921Z,65.29
2023-05-16T22:28:29.057Z,61.95
2023-05-16T22:30:57.342Z,62.60
2023-05-16T22:33:25.892Z,64.29
2023-05-16T22:35:54.360Z,65.86
2023-05-16T22:38:22.846Z,62.88
2023-05-16T22:40:50.835Z,62.27
2023-05-16T22:43:18.762Z,59.93
2023-05-16T22:45:47.325Z,62.48
2023-05-16T22:48:15.371Z,63.55
2023-05-16T22:50:43.405Z,61.26
2023-05-16T22:53:11.828Z,61.92
2023-05-16T22:55:39.811Z,62.95
2023-05-16T22:58:07.847Z,61.83
2023-05-16T23:00:36.378Z,58.74
2023-05-16T23:03:04.727Z,56.04
2023-05-16T23:05:32.832Z,55.30
2023-05-16T23:08:01.211Z,56.84
2023-05-16T23:10:29.398Z,58.08
2023-05-16T23:12:57.559Z,60.22
2023-05-16T23:15:26.355Z,63.42
2023-05-16T23:17:54.570Z,63.35
2023-05-16T23:20:22.889Z,63.07
2023-05-16T23:22:51.284Z,61.18
2023-05-16T23:25:19.694Z,64.75
2023-05-16T23:27:49.009Z,63.25
2023-05-16T23:30:17.459Z,61.28
2023-05-16T23:32:45.518Z,63.08
2023-05-16T23:35:13.574Z,58.42
2023-05-16T23:37:42.024Z,58.52
2023-05-16T23:40:10.336Z,62.62
2023-05-16T23:42:39.644Z,59.70
2023-05-16T23:45:08.955Z,60.56
2023-05-16T23:47:37.107Z,61.11
2023-05-16T23:50:06.282Z,57.73
2023-05-16T23:52:34.733Z,58.23
2023-05-16T23:55:02.870Z,59.93
2023-05-16T23:57:33.135Z,58.49
